createdAt,value
2018-10-06T00:00:55.430Z,101177.19
2018-10-06T00:03:24.761Z,101177.26
2018-10-06T00:05:54.094Z,101174.56
2018-10-06T00:08:23.373Z,101171.88
2018-10-06T00:10:52.802Z,101170.08
2018-10-06T00:13:22.250Z,101164.28
2018-10-06T00:15:51.358Z,101161.10
2018-10-06T00:18:20.396Z,101164.28
2018-10-06T00:20:49.543Z,101158.03
2018-10-06T00:23:18.664Z,101154.07
2018-10-06T00:25:47.752Z,101152.24
2018-10-06T00:28:16.837Z,101154.56
2018-10-06T00:30:46.228Z,101157.25
2018-10-06T00:33:15.350Z,101154.94
2018-10-06T00:35:44.415Z,101155.42
2018-10-06T00:38:13.505Z,101150.52
2018-10-06T00:40:42.591Z,101146.48
2018-10-06T00:43:11.692Z,101133.09
2018-10-06T00:45:40.786Z,101131.75
2018-10-06T00:48:09.852Z,101134.44
2018-10-06T00:50:38.914Z,101133.58
2018-10-06T00:53:08.032Z,101132.23
2018-10-06T00:55:37.290Z,101122.81
2018-10-06T00:58:06.376Z,101118.77
2018-10-06T01:00:35.543Z,101124.64
2018-10-06T01:03:04.657Z,101117.05
2018-10-06T01:05:33.703Z,101114.84
2018-10-06T01:08:02.747Z,101113.02
2018-10-06T01:10:31.815Z,101113.50
2018-10-06T01:13:00.961Z,101112.61
2018-10-06T01:15:30.068Z,101104.94
2018-10-06T01:17:59.244Z,101096.94
2018-10-06T01:20:28.307Z,101098.28
2018-10-06T01:22:57.451Z,101100.48
2018-10-06T01:25:26.555Z,101095.11
2018-10-06T01:27:55.662Z,101091.06
2018-10-06T01:30:24.909Z,101092.03
2018-10-06T01:32:54.023Z,101091.06
2018-10-06T01:35:23.128Z,101090.20
2018-10-06T01:37:52.176Z,101088.48
2018-10-06T01:40:21.258Z,101088.86
2018-10-06T01:42:50.319Z,101092.03
2018-10-06T01:45:19.414Z,101084.04
2018-10-06T01:47:48.517Z,101066.09
2018-10-06T01:50:17.562Z,101065.68
2018-10-06T01:52:46.766Z,101060.70
2018-10-06T01:55:15.894Z,101056.66
2018-10-06T01:57:44.985Z,101062.05
2018-10-06T02:00:14.074Z,101055.77
2018-10-06T02:02:43.155Z,101056.25
2018-10-06T02:05:12.608Z,101051.73
2018-10-06T02:07:41.678Z,101047.80
2018-10-06T02:10:10.770Z,101046.83
2018-10-06T02:12:39.832Z,101046.45
2018-10-06T02:15:08.905Z,101042.31
2018-10-06T02:17:38.089Z,101037.81
2018-10-06T02:20:07.250Z,101036.06
2018-10-06T02:22:36.354Z,101030.98
2018-10-06T02:25:06.003Z,101027.34
2018-10-06T02:27:35.163Z,101024.73
2018-10-06T02:30:04.456Z,101024.36
2018-10-06T02:32:33.622Z,101030.20
2018-10-06T02:35:02.676Z,101023.95
2018-10-06T02:37:31.750Z,101020.40
2018-10-06T02:40:00.950Z,101022.23
2018-10-06T02:42:29.996Z,101015.98
2018-10-06T02:44:59.414Z,101012.03
2018-10-06T02:47:28.486Z,101010.31
2018-10-06T02:49:57.538Z,101009.90
2018-10-06T02:52:26.786Z,101009.04
2018-10-06T02:54:55.858Z,101005.97
2018-10-06T02:57:25.086Z,101005.48
2018-10-06T02:59:54.390Z,100998.84
2018-10-06T03:02:23.594Z,100996.14
2018-10-06T03:04:52.786Z,100997.98
2018-10-06T03:07:21.935Z,100989.98
2018-10-06T03:09:51.156Z,100989.53
2018-10-06T03:12:20.200Z,100980.19
2018-10-06T03:14:49.308Z,100983.73
2018-10-06T03:17:18.524Z,100977.02
2018-10-06T03:19:47.728Z,100980.75
2018-10-06T03:22:16.814Z,100969.50
2018-10-06T03:24:45.930Z,100966.03
2018-10-06T03:27:15.095Z,100965.58
2018-10-06T03:29:44.134Z,100956.61
2018-10-06T03:32:13.198Z,100962.10
2018-10-06T03:34:42.242Z,100963.53
2018-10-06T03:37:11.308Z,100957.66
2018-10-06T03:39:40.363Z,100955.94
2018-10-06T03:42:09.492Z,100961.25
2018-10-06T03:44:38.566Z,100958.63
2018-10-06T03:47:07.646Z,100958.71
2018-10-06T03:49:36.764Z,100955.16
2018-10-06T03:52:05.908Z,100951.61
2018-10-06T03:54:35.087Z,100950.34
2018-10-06T03:57:04.120Z,100948.63
2018-10-06T03:59:33.176Z,100945.56
2018-10-06T04:02:02.243Z,100944.78
2018-10-06T04:04:31.424Z,100938.91
2018-10-06T04:07:00.448Z,100938.13
2018-10-06T04:09:29.514Z,100933.53
2018-10-06T04:11:58.627Z,100929.49
2018-10-06T04:14:27.696Z,100928.63
2018-10-06T04:16:56.746Z,100919.22
2018-10-06T04:19:25.815Z,100913.84
2018-10-06T04:21:54.899Z,100916.61
2018-10-06T04:24:23.988Z,100905.06
2018-10-06T04:26:53.098Z,100900.66
2018-10-06T04:29:22.295Z,100902.94
2018-10-06T04:31:51.383Z,100897.67
2018-10-06T04:34:20.483Z,100900.36
2018-10-06T04:36:49.563Z,100900.84
2018-10-06T04:39:18.663Z,100888.90
2018-10-06T04:41:47.703Z,100889.38
2018-10-06T04:44:16.750Z,100890.36
2018-10-06T04:46:45.779Z,100892.08
2018-10-06T04:49:14.869Z,100888.04
2018-10-06T04:51:43.943Z,100882.66
2018-10-06T04:54:13.052Z,100880.83
2018-10-06T04:56:42.119Z,100876.71
2018-10-06T04:59:11.219Z,100874.51
2018-10-06T05:01:40.364Z,100874.88
2018-10-06T05:04:09.407Z,100865.95
2018-10-06T05:06:38.456Z,100872.19
2018-10-06T05:09:08.098Z,100864.60
2018-10-06T05:11:37.130Z,100863.27
2018-10-06T05:14:06.243Z,100856.16
2018-10-06T05:16:35.349Z,100854.89
2018-10-06T05:19:04.395Z,100850.94
2018-10-06T05:21:33.453Z,100846.53
2018-10-06T05:24:02.536Z,100841.72
2018-10-06T05:26:31.588Z,100842.28
2018-10-06T05:29:00.712Z,100844.12
2018-10-06T05:31:29.788Z,100845.17
2018-10-06T05:33:59.050Z,100843.45
2018-10-06T05:36:28.314Z,100846.52
2018-10-06T05:38:57.436Z,100836.73
2018-10-06T05:41:26.614Z,100841.67
2018-10-06T05:43:55.666Z,100835.91
2018-10-06T05:46:24.799Z,100838.61
2018-10-06T05:48:54.063Z,100833.71
2018-10-06T05:51:23.163Z,100835.51
2018-10-06T05:53:52.297Z,100833.59
2018-10-06T05:56:21.375Z,100828.17
2018-10-06T05:58:50.623Z,100832.69
2018-10-06T06:01:19.771Z,100838.93
2018-10-06T06:03:49.000Z,100834.33
2018-10-06T06:06:18.170Z,100838.36
2018-10-06T06:08:47.185Z,100833.47
2018-10-06T06:11:16.268Z,100837.02
2018-10-06T06:13:45.367Z,100836.05
2018-10-06T06:16:14.471Z,100844.97
2018-10-06T06:18:43.523Z,100843.55
2018-10-06T06:21:12.567Z,100844.41
2018-10-06T06:23:41.623Z,100836.26
2018-10-06T06:26:10.671Z,100837.98
2018-10-06T06:28:39.735Z,100840.59
2018-10-06T06:31:09.089Z,100840.87
2018-10-06T06:33:38.349Z,100835.78
2018-10-06T06:36:07.387Z,100834.81
2018-10-06T06:38:36.745Z,100839.14
2018-10-06T06:41:05.927Z,100842.61
2018-10-06T06:43:35.155Z,100840.61
2018-10-06T06:46:04.528Z,100844.34
2018-10-06T06:48:33.897Z,100844.55
2018-10-06T06:51:02.957Z,100839.82
2018-10-06T06:53:32.068Z,100834.64
2018-10-06T06:56:01.240Z,100834.45
2018-10-06T06:58:30.322Z,100831.59
2018-10-06T07:00:59.510Z,100830.05
2018-10-06T07:03:28.710Z,100830.33
2018-10-06T07:05:58.076Z,100827.44
2018-10-06T07:08:27.136Z,100832.73
2018-10-06T07:10:56.212Z,100831.76
2018-10-06T07:13:25.343Z,100832.62
2018-10-06T07:15:54.406Z,100837.43
2018-10-06T07:18:23.547Z,100827.92
2018-10-06T07:20:52.763Z,100832.33
2018-10-06T07:23:21.872Z,100826.09
2018-10-06T07:25:50.949Z,100832.73
2018-10-06T07:28:20.442Z,100828.38
2018-10-06T07:30:49.759Z,100833.11
2018-10-06T07:33:18.816Z,100832.90
2018-10-06T07:35:48.181Z,100826.66
2018-10-06T07:38:17.346Z,100828.78
2018-10-06T07:40:51.797Z,100831.47
2018-10-06T07:43:20.873Z,100833.22
2018-10-06T07:45:49.962Z,100829.23
2018-10-06T07:48:19.088Z,100830.93
2018-10-06T07:50:48.453Z,100832.64
2018-10-06T07:53:17.767Z,100832.23
2018-10-06T07:55:47.435Z,100834.47
2018-10-06T07:58:16.558Z,100834.06
2018-10-06T08:00:45.843Z,100841.77
2018-10-06T08:03:14.906Z,100843.86
2018-10-06T08:05:44.051Z,100839.94
2018-10-06T08:08:13.154Z,100834.15
2018-10-06T08:10:42.241Z,100829.37
2018-10-06T08:13:11.332Z,100825.78
2018-10-06T08:15:40.430Z,100831.58
2018-10-06T08:18:09.562Z,100831.37
2018-10-06T08:20:38.748Z,100832.34
2018-10-06T08:23:08.099Z,100831.73
2018-10-06T08:25:37.215Z,100827.70
2018-10-06T08:28:06.528Z,100824.06
2018-10-06T08:30:41.258Z,100813.65
2018-10-06T08:33:10.380Z,100820.67
2018-10-06T08:35:39.463Z,100824.70
2018-10-06T08:38:08.600Z,100815.77
2018-10-06T08:40:37.797Z,100808.45
2018-10-06T08:43:06.994Z,100814.04
2018-10-06T08:47:05.523Z,100810.16
2018-10-06T08:49:34.851Z,100802.38
2018-10-06T08:52:03.926Z,100799.67
2018-10-06T08:54:39.406Z,100799.80
2018-10-06T08:57:09.156Z,100796.89
2018-10-06T08:59:38.214Z,100803.91
2018-10-06T09:02:12.842Z,100797.95
2018-10-06T09:04:42.048Z,100803.70
2018-10-06T09:07:11.482Z,100790.91
2018-10-06T09:09:40.643Z,100785.31
2018-10-06T09:12:09.731Z,100785.67
2018-10-06T09:14:38.847Z,100781.27
2018-10-06T09:17:07.960Z,100784.52
2018-10-06T09:19:37.225Z,100785.50
2018-10-06T09:22:06.290Z,100788.38
2018-10-06T09:24:35.416Z,100787.60
2018-10-06T09:27:04.600Z,100784.05
2018-10-06T09:29:33.738Z,100786.87
2018-10-06T09:32:02.815Z,100790.91
2018-10-06T09:34:37.286Z,100793.39
2018-10-06T09:37:06.813Z,100792.81
2018-10-06T09:39:35.934Z,100793.19
2018-10-06T09:42:05.393Z,100795.00
2018-10-06T09:44:34.504Z,100801.82
2018-10-06T09:47:03.639Z,100805.47
2018-10-06T09:49:32.761Z,100808.27
2018-10-06T09:52:01.943Z,100814.91
2018-10-06T09:54:31.054Z,100813.44
2018-10-06T09:57:00.232Z,100810.74
2018-10-06T09:59:29.404Z,100805.35
2018-10-06T10:02:08.889Z,100804.98
2018-10-06T10:04:38.429Z,100800.94
2018-10-06T10:07:07.504Z,100801.31
2018-10-06T10:09:36.880Z,100798.61
2018-10-06T10:12:06.171Z,100794.97
2018-10-06T10:14:35.393Z,100798.89
2018-10-06T10:17:04.549Z,100796.77
2018-10-06T10:19:33.779Z,100793.34
2018-10-06T10:22:03.109Z,100792.73
2018-10-06T10:24:32.267Z,100791.20
2018-10-06T10:27:01.572Z,100790.02
2018-10-06T10:29:30.665Z,100791.84
2018-10-06T10:31:59.971Z,100796.96
2018-10-06T10:34:29.100Z,100795.43
2018-10-06T10:36:58.298Z,100804.58
2018-10-06T10:39:27.486Z,100804.80
2018-10-06T10:41:56.620Z,100801.82
2018-10-06T10:44:25.752Z,100797.02
2018-10-06T10:46:55.057Z,100800.31
2018-10-06T10:49:24.221Z,100795.51
2018-10-06T10:51:53.552Z,100800.31
2018-10-06T10:54:22.690Z,100793.76
2018-10-06T10:56:52.059Z,100788.19
2018-10-06T10:59:21.204Z,100780.98
2018-10-06T11:01:50.554Z,100780.13
2018-10-06T11:04:19.745Z,100781.08
2018-10-06T11:06:48.850Z,100779.15
2018-10-06T11:09:17.925Z,100785.97
2018-10-06T11:11:47.001Z,100783.68
2018-10-06T11:14:16.052Z,100782.52
2018-10-06T11:16:45.215Z,100777.13
2018-10-06T11:19:14.334Z,100783.38
2018-10-06T11:21:43.412Z,100783.26
2018-10-06T11:24:12.810Z,100775.78
2018-10-06T11:26:41.889Z,100768.06
2018-10-06T11:29:10.945Z,100766.72
2018-10-06T11:31:39.999Z,100770.67
2018-10-06T11:34:09.184Z,100766.14
2018-10-06T11:36:38.364Z,100760.62
2018-10-06T11:39:08.793Z,100759.77
2018-10-06T11:41:37.916Z,100756.98
2018-10-06T11:44:07.252Z,100758.42
2018-10-06T11:46:36.496Z,100755.64
2018-10-06T11:49:05.749Z,100741.58
2018-10-06T11:51:34.770Z,100743.45
2018-10-06T11:54:03.917Z,100743.27
2018-10-06T11:56:33.010Z,100739.71
2018-10-06T11:59:02.107Z,100726.69
2018-10-06T12:01:31.196Z,100716.80
2018-10-06T12:04:00.274Z,100710.71
2018-10-06T12:06:34.815Z,100706.67
2018-10-06T12:09:05.534Z,100711.30
2018-10-06T12:11:34.702Z,100708.23
2018-10-06T12:14:03.772Z,100704.77
2018-10-06T12:16:32.869Z,100699.02
2018-10-06T12:19:02.206Z,100699.47
2018-10-06T12:21:31.266Z,100703.52
2018-10-06T12:24:00.326Z,100706.20
2018-10-06T12:26:29.383Z,100704.98
2018-10-06T12:28:58.527Z,100704.41
2018-10-06T12:31:27.727Z,100711.14
2018-10-06T12:33:56.796Z,100708.91
2018-10-06T12:36:26.016Z,100706.48
2018-10-06T12:38:55.081Z,100706.12
2018-10-06T12:41:24.160Z,100703.52
2018-10-06T12:43:53.335Z,100700.09
2018-10-06T12:46:22.405Z,100698.83
2018-10-06T12:48:51.498Z,100695.28
2018-10-06T12:51:20.653Z,100692.58
2018-10-06T12:53:49.894Z,100692.95
2018-10-06T12:56:19.195Z,100698.25
2018-10-06T12:58:48.429Z,100692.73
2018-10-06T13:01:17.472Z,100690.44
2018-10-06T13:03:46.594Z,100691.66
2018-10-06T13:06:15.650Z,100689.86
2018-10-06T13:08:44.918Z,100691.66
2018-10-06T13:11:14.080Z,100684.07
2018-10-06T13:13:43.171Z,100688.52
2018-10-06T13:16:12.255Z,100689.25
2018-10-06T13:18:41.310Z,100684.84
2018-10-06T13:21:10.482Z,100679.23
2018-10-06T13:23:39.552Z,100678.38
2018-10-06T13:26:08.636Z,100676.66
2018-10-06T13:28:37.698Z,100674.42
2018-10-06T13:31:06.831Z,100674.82
2018-10-06T13:33:35.911Z,100673.97
2018-10-06T13:36:05.034Z,100667.23
2018-10-06T13:38:34.156Z,100675.68
2018-10-06T13:41:03.360Z,100679.45
2018-10-06T13:43:32.454Z,100678.86
2018-10-06T13:46:01.532Z,100683.18
2018-10-06T13:48:30.612Z,100682.41
2018-10-06T13:50:59.686Z,100685.78
2018-10-06T13:53:28.975Z,100694.33
2018-10-06T13:55:58.071Z,100702.41
2018-10-06T13:58:27.239Z,100696.66
2018-10-06T14:00:56.386Z,100701.67
2018-10-06T14:03:25.497Z,100702.63
2018-10-06T14:05:54.832Z,100699.94
2018-10-06T14:08:24.098Z,100707.25
2018-10-06T14:10:53.204Z,100711.30
2018-10-06T14:13:22.436Z,100706.77
2018-10-06T14:15:52.688Z,100709.77
2018-10-06T14:18:21.796Z,100707.06
2018-10-06T14:20:50.993Z,100711.11
2018-10-06T14:23:20.110Z,100706.17
2018-10-06T14:25:49.304Z,100702.53
2018-10-06T14:28:18.473Z,100712.91
2018-10-06T14:30:47.635Z,100715.24
2018-10-06T14:33:16.775Z,100719.66
2018-10-06T14:35:45.908Z,100712.45
2018-10-06T14:38:14.999Z,100714.27
2018-10-06T14:40:44.171Z,100722.63
2018-10-06T14:43:13.294Z,100722.63
2018-10-06T14:45:42.462Z,100716.50
2018-10-06T14:48:11.583Z,100719.92
2018-10-06T14:50:40.839Z,100718.22
2018-10-06T14:53:10.012Z,100722.63
2018-10-06T14:55:39.187Z,100723.61
2018-10-06T14:58:08.409Z,100720.48
2018-10-06T15:00:37.554Z,100720.60
2018-10-06T15:03:06.683Z,100718.39
2018-10-06T15:05:35.754Z,100720.70
2018-10-06T15:08:04.856Z,100718.13
2018-10-06T15:10:34.074Z,100719.84
2018-10-06T15:13:03.246Z,100712.73
2018-10-06T15:15:32.456Z,100714.66
2018-10-06T15:18:01.867Z,100717.08
2018-10-06T15:20:31.394Z,100713.98
2018-10-06T15:23:00.722Z,100716.19
2018-10-06T15:25:29.854Z,100710.44
2018-10-06T15:27:59.033Z,100706.77
2018-10-06T15:30:28.344Z,100708.02
2018-10-06T15:32:57.773Z,100706.67
2018-10-06T15:35:27.053Z,100712.06
2018-10-06T15:37:56.229Z,100708.88
2018-10-06T15:40:25.473Z,100716.95
2018-10-06T15:42:54.674Z,100721.40
2018-10-06T15:45:24.065Z,100725.93
2018-10-06T15:47:53.265Z,100726.20
2018-10-06T15:50:22.415Z,100724.86
2018-10-06T15:52:51.826Z,100720.33
2018-10-06T15:55:21.118Z,100711.84
2018-10-06T15:57:50.259Z,100712.23
2018-10-06T16:00:19.467Z,100716.77
2018-10-06T16:02:49.670Z,100718.80
2018-10-06T16:05:18.909Z,100716.09
2018-10-06T16:07:48.091Z,100720.63
2018-10-06T16:10:17.233Z,100720.63
2018-10-06T16:12:46.360Z,100721.13
2018-10-06T16:15:15.461Z,100720.63
2018-10-06T16:17:44.550Z,100718.88
2018-10-06T16:20:13.654Z,100729.97
2018-10-06T16:22:42.975Z,100726.88
2018-10-06T16:25:12.171Z,100731.99
2018-10-06T16:27:41.371Z,100739.09
2018-10-06T16:30:10.472Z,100741.34
2018-10-06T16:32:39.818Z,100740.45
2018-10-06T16:35:09.011Z,100738.64
2018-10-06T16:37:38.347Z,100740.94
2018-10-06T16:40:07.475Z,100743.62
2018-10-06T16:42:36.551Z,100741.34
2018-10-06T16:45:05.779Z,100740.45
2018-10-06T16:47:35.065Z,100750.36
2018-10-06T16:50:04.166Z,100754.89
2018-10-06T16:52:33.299Z,100756.73
2018-10-06T16:55:02.412Z,100753.64
2018-10-06T16:57:31.538Z,100751.92
2018-10-06T17:00:00.724Z,100748.46
2018-10-06T17:02:30.145Z,100753.36
2018-10-06T17:04:59.300Z,100759.73
2018-10-06T17:07:28.428Z,100758.47
2018-10-06T17:09:57.554Z,100763.00
2018-10-06T17:12:26.771Z,100765.33
2018-10-06T17:14:56.137Z,100766.40
2018-10-06T17:17:25.256Z,100765.14
2018-10-06T17:19:54.659Z,100776.69
2018-10-06T17:22:23.931Z,100791.14
2018-10-06T17:24:53.186Z,100801.30
2018-10-06T17:27:22.972Z,100799.22
2018-10-06T17:29:52.356Z,100801.63
2018-10-06T17:32:21.661Z,100799.52
2018-10-06T17:34:50.958Z,100803.92
2018-10-06T17:37:20.147Z,100806.34
2018-10-06T17:39:49.313Z,100804.91
2018-10-06T17:42:18.423Z,100804.05
2018-10-06T17:44:47.579Z,100804.33
2018-10-06T17:47:16.948Z,100801.23
2018-10-06T17:49:46.456Z,100801.63
2018-10-06T17:52:15.852Z,100796.34
2018-10-06T17:54:45.192Z,100807.97
2018-10-06T17:57:14.359Z,100808.83
2018-10-06T17:59:43.513Z,100820.86
2018-10-06T18:02:12.648Z,100825.39
2018-10-06T18:04:41.904Z,100828.58
2018-10-06T18:07:11.194Z,100828.45
2018-10-06T18:09:40.354Z,100838.38
2018-10-06T18:12:09.604Z,100840.21
2018-10-06T18:14:44.386Z,100842.13
2018-10-06T18:17:13.590Z,100847.52
2018-10-06T18:19:42.787Z,100849.36
2018-10-06T18:22:12.095Z,100855.12
2018-10-06T18:24:41.271Z,100843.97
2018-10-06T18:27:10.468Z,100851.56
2018-10-06T18:29:39.786Z,100862.25
2018-10-06T18:32:14.443Z,100860.14
2018-10-06T18:34:43.592Z,100860.14
2018-10-06T18:37:12.937Z,100868.22
2018-10-06T18:39:42.195Z,100874.55
2018-10-06T18:42:11.323Z,100882.06
2018-10-06T18:44:40.476Z,100879.85
2018-10-06T18:47:09.687Z,100890.34
2018-10-06T18:49:38.867Z,100896.22
2018-10-06T18:52:08.119Z,100894.47
2018-10-06T18:54:37.712Z,100902.27
2018-10-06T18:57:06.808Z,100909.00
2018-10-06T18:59:35.991Z,100925.28
2018-10-06T19:02:05.286Z,100927.20
2018-10-06T19:04:34.386Z,100929.12
2018-10-06T19:07:03.559Z,100924.59
2018-10-06T19:09:32.672Z,100928.75
2018-10-06T19:12:02.036Z,100942.59
2018-10-06T19:14:31.185Z,100937.77
2018-10-06T19:17:00.399Z,100950.87
2018-10-06T19:19:29.583Z,100961.35
2018-10-06T19:21:58.828Z,100957.40
2018-10-06T19:24:28.090Z,100953.92
2018-10-06T19:26:57.183Z,100963.35
2018-10-06T19:29:26.370Z,100969.23
2018-10-06T19:31:55.468Z,100967.39
2018-10-06T19:34:24.619Z,100960.20
2018-10-06T19:36:53.763Z,100964.62
2018-10-06T19:39:22.831Z,100961.06
2018-10-06T19:41:51.931Z,100966.05
2018-10-06T19:44:21.146Z,100969.27
2018-10-06T19:46:50.344Z,100969.88
2018-10-06T19:49:19.562Z,100964.09
2018-10-06T19:51:48.691Z,100958.63
2018-10-06T19:54:17.820Z,100962.37
2018-10-06T19:56:46.907Z,100975.84
2018-10-06T19:59:16.052Z,100992.48
2018-10-06T20:01:45.127Z,101002.36
2018-10-06T20:04:14.276Z,101005.05
2018-10-06T20:06:43.590Z,100999.30
2018-10-06T20:09:12.679Z,101013.62
2018-10-06T20:11:41.839Z,101026.22
2018-10-06T20:14:10.863Z,101027.20
2018-10-06T20:16:40.039Z,101032.66
2018-10-06T20:19:09.231Z,101029.59
2018-10-06T20:21:38.630Z,101030.05
2018-10-06T20:24:07.848Z,101036.78
2018-10-06T20:26:36.999Z,101046.32
2018-10-06T20:29:06.302Z,101051.78
2018-10-06T20:31:35.539Z,101054.10
2018-10-06T20:34:04.659Z,101055.45
2018-10-06T20:36:33.775Z,101064.39
2018-10-06T20:39:02.860Z,101064.88
2018-10-06T20:41:31.920Z,101069.77
2018-10-06T20:44:01.046Z,101072.95
2018-10-06T20:46:30.229Z,101074.00
2018-10-06T20:48:59.471Z,101067.64
2018-10-06T20:51:28.563Z,101069.10
2018-10-06T20:53:57.665Z,101075.91
2018-10-06T20:56:26.735Z,101080.44
2018-10-06T20:58:56.094Z,101081.86
2018-10-06T21:01:30.561Z,101094.46
2018-10-06T21:03:59.647Z,101093.68
2018-10-06T21:06:28.784Z,101103.40
2018-10-06T21:08:58.459Z,101110.13
2018-10-06T21:11:27.588Z,101112.91
2018-10-06T21:13:56.788Z,101121.47
2018-10-06T21:16:27.930Z,101110.21
2018-10-06T21:18:57.091Z,101112.04
2018-10-06T21:21:26.211Z,101105.80
2018-10-06T21:23:55.410Z,101094.66
2018-10-06T21:26:24.859Z,101107.14
2018-10-06T21:28:54.214Z,101107.63
2018-10-06T21:31:23.434Z,101108.11
2018-10-06T21:33:52.827Z,101102.32
2018-10-06T21:36:22.001Z,101124.83
2018-10-06T21:38:51.168Z,101127.59
2018-10-06T21:41:20.436Z,101129.42
2018-10-06T21:43:49.650Z,101155.48
2018-10-06T21:46:18.956Z,101148.76
2018-10-06T21:48:48.048Z,101151.45
2018-10-06T21:51:17.448Z,101144.91
2018-10-06T21:53:46.648Z,101132.20
2018-10-06T21:56:15.822Z,101125.47
2018-10-06T21:58:44.997Z,101107.03
2018-10-06T22:01:14.767Z,101126.25
2018-10-06T22:03:44.046Z,101120.30
2018-10-06T22:06:13.194Z,101124.42
2018-10-06T22:08:42.327Z,101154.92
2018-10-06T22:11:11.856Z,101176.92
2018-10-06T22:13:40.956Z,101189.03
2018-10-06T22:16:10.014Z,101201.14
2018-10-06T22:18:39.108Z,101189.03
2018-10-06T22:21:08.215Z,101219.06
2018-10-06T22:23:37.346Z,101214.05
2018-10-06T22:26:06.508Z,101229.34
2018-10-06T22:28:35.566Z,101241.45
2018-10-06T22:31:04.690Z,101230.77
2018-10-06T22:33:33.821Z,101242.42
2018-10-06T22:36:02.974Z,101236.14
2018-10-06T22:38:32.078Z,101225.86
2018-10-06T22:41:01.310Z,101235.47
2018-10-06T22:43:30.459Z,101216.70
2018-10-06T22:45:59.692Z,101249.89
2018-10-06T22:48:28.738Z,101247.58
2018-10-06T22:50:57.905Z,101252.17
2018-10-06T22:53:26.971Z,101259.39
2018-10-06T22:55:56.043Z,101267.95
2018-10-06T22:58:25.220Z,101264.39
2018-10-06T23:00:54.408Z,101268.02
2018-10-06T23:03:23.722Z,101271.68
2018-10-06T23:05:52.803Z,101276.20
2018-10-06T23:08:21.920Z,101282.22
2018-10-06T23:10:50.992Z,101281.53
2018-10-06T23:13:20.065Z,101289.60
2018-10-06T23:15:49.139Z,101295.44
2018-10-06T23:18:18.196Z,101296.71
2018-10-06T23:20:47.323Z,101303.92
2018-10-06T23:23:16.379Z,101324.97
2018-10-06T23:25:45.515Z,101314.76
2018-10-06T23:28:14.609Z,101323.31
2018-10-06T23:30:43.723Z,101335.05
2018-10-06T23:33:12.932Z,101327.05
2018-10-06T23:35:42.018Z,101343.58
2018-10-06T23:38:11.134Z,101345.41
2018-10-06T23:40:40.204Z,101358.86
2018-10-06T23:43:09.528Z,101360.20
2018-10-06T23:45:38.812Z,101361.17
2018-10-06T23:48:08.156Z,101369.31
2018-10-06T23:50:37.286Z,101374.70
2018-10-06T23:53:06.390Z,101379.59
2018-10-06T23:55:36.317Z,101383.25
2018-10-06T23:58:05.406Z,101390.95
